Strona główna
METAR-TAF:

METAR-TAF

Lotnisko :

Berlin, New Hampshire, Stany Zjednoczone

Szerokość geograficzna: 44-34-34N, Długość geograficzna: 071-10-43W, wysokość: 353 m

Aktualna obserwacja pogody

Raport powstał 1 godzina i 3 minut temu, godzina 13:52 UTC
Cisza
Temperatura -8°C
Wilgotność 79%
Ciśnienie 1027 hPa
Widzialność: 16.1 km
bezchmurnie

METAR: KBML 181352Z AUTO 00000KT 10SM CLR M08/M11 A3032 RMK AO2 SLP288 T10781111

czas: 09:55 (14:55 UTC)


TAF: brakujący

Obserwacja i prognoza pogody dla ponad 4000 lotnisk (raport METAR i TAF).

Dostępne stacje oznaczono żółtymi i czerwonymi punktami na mapie.

Najedź kursorem aby zobaczyć nazwę stacji.

Kliknij aby zobaczyć obserwacje i prognozy pogody.

Aby zmienić mapę: kliknij na zielony przycisk z czarnym krzyżykiem, aby powiększyć; na zielony przycisk z myślnikiem, aby pomniejszyć; na zielone strzałki, aby przejść do map sąsiednich.


METAR-TAF: